Česky Dansk Deutsch English Español Suomi Français Magyar Italiano Nederlands norsk Polski Português svenska Türkçe

 

Het Weer

Vitoria Da Conquista (Brazilië)

01:00, 19 augustus 2016 (GMT)

NWNNE
WE
SWSSE
Home            
Vitoria Da Conquista Ilheus Aeroporto Porto Seguro Bom Jesus Da Lapa Caravelas Salvador Aeroporto Montes Claros Vitoria Aeroporto Aracaju Aeroporto Petrolina Belo Horizonte Aeroporto Belo Horizonte Paulo Afonso Campos Brasilia Aeroporto Barbacena Gama Juiz De Fora Maceio Aeroporto Macae Anapolis Braz-Afb S. P. Aldeia Aerodrome Uberlandia

Om een weerknop op uw website of weblog te plaatsen, copieer onderstaande code en plak die in uw pagina. In het eerste vakje staat HTML-code, in het tweede vakje UBB-code.


Add to Google

Details

Wind speed:4 bf, 11 kn, 5.7 m/s, 12.7 miles/h, 20.4 km/h
Wind direction:ESE, 110°
Visibility:Greater than 10000 m, 10 km, 32800 ft, 6.2 miles
Clouds:CAVOC
Temperature:21°C, 70°F
Dew-point:17°C, 63°F
Atmospheric pressure:1021 hPa, 765.8 mmHg, 30.15 inHg, 1.008 atm
Relative humidity:77.9 %
METAR:SBQV 190100Z 11011KT CAVOK 21/17 Q1021

Snelkoppelingen

Actuele weersinformatie van de hele wereld. Voeg locaties toe met het plus (+) symbool. Deze snelkoppelingen kunnen worden toegevoegd aan Google.

Lid van de Technetium groep

website free tracking
StatCounter NetStat W3C Validator

19-02-2020 05:22:36
astro.technetium.be money.technetium.be phote.technetium.be tafeltennistafel.technetium.be www.ligfiets.net